createdAt,value
2018-01-20T00:00:24.763Z,3.33
2018-01-20T00:02:52.231Z,2.17
2018-01-20T00:05:20.143Z,2.30
2018-01-20T00:07:47.606Z,2.17
2018-01-20T00:10:27.869Z,1.63
2018-01-20T00:12:56.612Z,2.20
2018-01-20T00:15:24.123Z,1.57
2018-01-20T00:17:52.369Z,1.30
2018-01-20T00:20:20.644Z,1.40
2018-01-20T00:22:48.119Z,4.47
2018-01-20T00:25:15.583Z,1.80
2018-01-20T00:27:43.814Z,2.20
2018-01-20T00:30:11.310Z,3.37
2018-01-20T00:32:39.547Z,1.60
2018-01-20T00:35:07.032Z,2.60
2018-01-20T00:37:34.594Z,1.90
2018-01-20T00:40:02.073Z,2.27
2018-01-20T00:42:30.304Z,2.47
2018-01-20T00:44:57.798Z,2.43
2018-01-20T00:47:26.053Z,1.40
2018-01-20T00:49:53.516Z,1.80
2018-01-20T00:52:20.993Z,2.13
2018-01-20T00:54:49.244Z,1.70
2018-01-20T00:57:16.827Z,2.57
2018-01-20T00:59:45.101Z,1.65
2018-01-20T01:02:13.336Z,3.57
2018-01-20T01:04:40.820Z,1.37
2018-01-20T01:07:09.818Z,3.83
2018-01-20T01:09:38.792Z,2.30
2018-01-20T01:12:06.275Z,2.37
2018-01-20T01:14:33.751Z,5.57
2018-01-20T01:17:01.993Z,3.60
2018-01-20T01:19:29.565Z,2.47
2018-01-20T01:21:57.059Z,1.53
2018-01-20T01:24:25.359Z,1.40
2018-01-20T01:26:52.827Z,1.70
2018-01-20T01:29:20.307Z,1.40
2018-01-20T01:31:47.878Z,1.50
2018-01-20T01:34:16.135Z,3.00
2018-01-20T01:36:43.608Z,1.60
2018-01-20T01:39:11.857Z,1.77
2018-01-20T01:41:39.350Z,1.73
2018-01-20T01:44:07.579Z,3.10
2018-01-20T01:46:35.080Z,1.57
2018-01-20T01:49:03.313Z,1.83
2018-01-20T01:51:30.817Z,3.03
2018-01-20T01:53:59.823Z,2.67
2018-01-20T01:56:27.292Z,2.47
2018-01-20T01:58:54.775Z,2.60
2018-01-20T02:01:22.244Z,2.10
2018-01-20T02:03:49.713Z,1.90
2018-01-20T02:06:17.330Z,5.03
2018-01-20T02:08:44.792Z,1.70
2018-01-20T02:11:12.264Z,4.90
2018-01-20T02:13:39.746Z,5.10
2018-01-20T02:16:07.220Z,3.17
2018-01-20T02:18:35.856Z,1.80
2018-01-20T02:21:03.323Z,1.50
2018-01-20T02:23:30.828Z,3.30
2018-01-20T02:25:59.056Z,2.10
2018-01-20T02:28:26.540Z,1.83
2018-01-20T02:30:54.029Z,2.10
2018-01-20T02:33:22.296Z,2.23
2018-01-20T02:35:50.543Z,1.80
2018-01-20T02:38:18.039Z,2.17
2018-01-20T02:40:46.279Z,3.53
2018-01-20T02:43:15.265Z,1.77
2018-01-20T02:45:42.748Z,2.00
2018-01-20T02:48:10.229Z,1.80
2018-01-20T02:50:38.460Z,2.70
2018-01-20T02:53:05.943Z,2.70
2018-01-20T02:55:34.191Z,2.60
2018-01-20T02:58:01.659Z,1.77
2018-01-20T03:00:29.248Z,2.45
2018-01-20T03:02:57.499Z,2.47
2018-01-20T03:05:26.170Z,2.20
2018-01-20T03:07:55.562Z,2.10
2018-01-20T03:10:23.380Z,3.35
2018-01-20T03:12:51.629Z,2.27
2018-01-20T03:15:19.103Z,5.33
2018-01-20T03:17:47.343Z,3.33
2018-01-20T03:20:14.814Z,1.70
2018-01-20T03:22:42.303Z,1.65
2018-01-20T03:25:10.531Z,3.13
2018-01-20T03:27:38.022Z,1.90
2018-01-20T03:30:06.272Z,1.57
2018-01-20T03:32:33.762Z,1.57
2018-01-20T03:35:01.979Z,1.97
2018-01-20T03:37:29.453Z,1.60
2018-01-20T03:39:56.937Z,1.60
2018-01-20T03:42:25.420Z,2.53
2018-01-20T03:44:52.900Z,2.10
2018-01-20T03:47:21.153Z,2.30
2018-01-20T03:49:48.624Z,1.40
2018-01-20T03:52:16.863Z,4.53
2018-01-20T03:54:44.334Z,1.43
2018-01-20T03:57:11.797Z,1.60
2018-01-20T03:59:39.277Z,3.60
2018-01-20T04:02:07.540Z,3.20
2018-01-20T04:04:35.008Z,2.53
2018-01-20T04:07:03.240Z,2.73
2018-01-20T04:09:30.742Z,1.60
2018-01-20T04:11:59.007Z,3.90
2018-01-20T04:14:27.259Z,1.80
2018-01-20T04:16:54.726Z,5.22
2018-01-20T04:19:22.203Z,4.00
2018-01-20T04:21:50.432Z,2.73
2018-01-20T04:24:17.915Z,2.13
2018-01-20T04:26:46.294Z,1.60
2018-01-20T04:29:13.783Z,2.10
2018-01-20T04:31:42.012Z,2.20
2018-01-20T04:34:09.504Z,2.70
2018-01-20T04:36:37.798Z,1.83
2018-01-20T04:39:06.058Z,1.70
2018-01-20T04:41:34.307Z,1.50
2018-01-20T04:44:01.776Z,5.03
2018-01-20T04:46:30.760Z,2.60
2018-01-20T04:48:58.223Z,4.03
2018-01-20T04:51:25.809Z,3.13
2018-01-20T04:53:54.097Z,2.80
2018-01-20T04:56:22.375Z,2.80
2018-01-20T04:58:51.630Z,4.80
2018-01-20T05:01:19.112Z,2.53
2018-01-20T05:03:47.348Z,3.33
2018-01-20T05:06:14.829Z,2.10
2018-01-20T05:08:42.297Z,4.30
2018-01-20T05:11:10.547Z,3.77
2018-01-20T05:13:38.012Z,2.10
2018-01-20T05:16:05.591Z,1.50
2018-01-20T05:18:33.166Z,2.20
2018-01-20T05:21:02.347Z,1.60
2018-01-20T05:23:30.566Z,1.87
2018-01-20T05:25:58.058Z,2.10
2018-01-20T05:28:25.524Z,1.40
2018-01-20T05:30:53.020Z,2.10
2018-01-20T05:33:20.505Z,1.40
2018-01-20T05:35:47.972Z,1.53
2018-01-20T05:38:15.479Z,2.30
2018-01-20T05:40:43.712Z,1.50
2018-01-20T05:43:11.185Z,1.50
2018-01-20T05:45:38.660Z,2.03
2018-01-20T05:48:06.135Z,1.97
2018-01-20T05:50:34.375Z,1.00
2018-01-20T05:53:01.843Z,0.90
2018-01-20T05:55:29.433Z,1.17
2018-01-20T05:57:57.685Z,3.00
2018-01-20T06:00:25.181Z,1.10
2018-01-20T06:02:52.640Z,1.00
2018-01-20T06:05:20.105Z,1.90
2018-01-20T06:07:47.591Z,2.20
2018-01-20T06:10:15.050Z,1.63
2018-01-20T06:12:42.552Z,1.20
2018-01-20T06:15:10.799Z,1.47
2018-01-20T06:17:38.273Z,2.60
2018-01-20T06:20:05.744Z,1.23
2018-01-20T06:22:33.999Z,1.10
2018-01-20T06:25:02.250Z,1.10
2018-01-20T06:27:29.752Z,1.00
2018-01-20T06:29:57.991Z,1.10
2018-01-20T06:32:25.499Z,1.00
2018-01-20T06:34:52.959Z,1.43
2018-01-20T06:37:21.221Z,1.20
2018-01-20T06:39:49.477Z,1.40
2018-01-20T06:42:17.719Z,1.60
2018-01-20T06:44:45.191Z,1.00
2018-01-20T06:47:13.274Z,2.37
2018-01-20T06:49:40.757Z,2.33
2018-01-20T06:52:08.992Z,2.67
2018-01-20T06:54:36.479Z,0.90
2018-01-20T06:57:04.033Z,1.10
2018-01-20T06:59:31.508Z,1.00
2018-01-20T07:01:59.765Z,1.43
2018-01-20T07:04:27.242Z,1.20
2018-01-20T07:06:56.391Z,1.47
2018-01-20T07:09:23.856Z,1.10
2018-01-20T07:11:51.545Z,1.35
2018-01-20T07:14:19.016Z,1.23
2018-01-20T07:16:47.271Z,1.57
2018-01-20T07:19:14.754Z,1.53
2018-01-20T07:21:42.439Z,3.30
2018-01-20T07:24:09.925Z,1.70
2018-01-20T07:26:37.387Z,1.27
2018-01-20T07:29:05.633Z,4.23
2018-01-20T07:31:33.104Z,1.20
2018-01-20T07:34:00.616Z,2.20
2018-01-20T07:36:28.862Z,3.60
2018-01-20T07:38:56.344Z,6.17
2018-01-20T07:41:24.580Z,1.37
2018-01-20T07:43:52.064Z,2.07
2018-01-20T07:46:19.537Z,2.83
2018-01-20T07:48:47.806Z,3.53
2018-01-20T07:51:16.043Z,2.80
2018-01-20T07:53:43.527Z,2.37
2018-01-20T07:56:12.512Z,3.55
2018-01-20T07:58:39.995Z,2.87
2018-01-20T08:01:08.239Z,6.27
2018-01-20T08:03:35.731Z,7.37
2018-01-20T08:06:03.964Z,6.25
2018-01-20T08:08:31.433Z,9.50
2018-01-20T08:10:58.896Z,3.63
2018-01-20T08:13:26.381Z,5.13
2018-01-20T08:15:54.617Z,3.60
2018-01-20T08:18:22.106Z,4.53
2018-01-20T08:20:50.335Z,2.97
2018-01-20T08:23:17.828Z,4.90
2018-01-20T08:25:45.302Z,6.20
2018-01-20T08:28:14.719Z,4.22
2018-01-20T08:43:30.641Z,6.30
2018-01-20T08:45:58.111Z,4.23
2018-01-20T08:48:25.579Z,5.07
2018-01-20T08:50:53.054Z,4.83
2018-01-20T08:53:21.283Z,3.73
2018-01-20T08:55:48.772Z,3.87
2018-01-20T08:58:16.256Z,8.27
2018-01-20T09:00:44.509Z,4.40
2018-01-20T09:03:11.995Z,4.60
2018-01-20T09:05:39.488Z,4.50
2018-01-20T09:08:06.956Z,4.03
2018-01-20T09:10:34.484Z,4.13
2018-01-20T09:13:01.959Z,7.10
2018-01-20T09:15:29.443Z,4.10
2018-01-20T09:17:57.677Z,6.67
2018-01-20T09:20:27.234Z,3.60
2018-01-20T09:22:55.475Z,4.80
2018-01-20T09:25:22.944Z,3.83
2018-01-20T09:27:50.428Z,4.27
2018-01-20T09:30:18.672Z,3.50
2018-01-20T09:32:46.905Z,3.75
2018-01-20T09:35:14.380Z,4.30
2018-01-20T09:37:41.878Z,4.20
2018-01-20T09:40:09.358Z,5.40
2018-01-20T09:42:36.822Z,6.60
2018-01-20T09:45:05.089Z,4.47
2018-01-20T09:47:34.078Z,3.47
2018-01-20T09:50:02.333Z,5.33
2018-01-20T09:52:29.805Z,7.93
2018-01-20T09:54:57.299Z,5.40
2018-01-20T09:57:25.550Z,6.50
2018-01-20T09:59:53.011Z,5.93
2018-01-20T10:02:21.259Z,4.07
2018-01-20T10:04:48.746Z,4.18
2018-01-20T10:07:16.242Z,4.60
2018-01-20T10:09:43.704Z,5.37
2018-01-20T10:12:11.193Z,4.83
2018-01-20T10:14:38.654Z,4.60
2018-01-20T10:17:06.145Z,5.57
2018-01-20T10:19:34.388Z,6.33
2018-01-20T10:22:01.885Z,3.93
2018-01-20T10:24:30.135Z,4.60
2018-01-20T10:26:57.621Z,5.35
2018-01-20T10:29:25.852Z,5.00
2018-01-20T10:31:53.340Z,5.13
2018-01-20T10:34:21.586Z,5.43
2018-01-20T10:36:50.270Z,5.43
2018-01-20T10:39:17.744Z,6.90
2018-01-20T10:41:45.256Z,8.73
2018-01-20T10:44:13.933Z,8.10
2018-01-20T10:46:42.765Z,9.30
2018-01-20T10:49:10.254Z,6.57
2018-01-20T10:51:38.509Z,6.23
2018-01-20T10:54:05.991Z,5.00
2018-01-20T10:56:34.256Z,6.03
2018-01-20T10:59:02.528Z,5.57
2018-01-20T11:01:30.024Z,4.53
2018-01-20T11:03:57.486Z,5.57
2018-01-20T11:06:25.005Z,6.83
2018-01-20T11:08:54.007Z,7.00
2018-01-20T11:11:22.276Z,4.77
2018-01-20T11:13:50.501Z,4.80
2018-01-20T11:16:17.985Z,7.40
2018-01-20T11:18:45.452Z,6.03
2018-01-20T11:21:13.707Z,6.47
2018-01-20T11:23:41.191Z,4.20
2018-01-20T11:26:08.664Z,4.40
2018-01-20T11:28:36.919Z,4.30
2018-01-20T11:31:05.164Z,8.07
2018-01-20T11:33:32.650Z,5.73
2018-01-20T11:36:00.133Z,7.93
2018-01-20T11:38:28.376Z,5.60
2018-01-20T11:40:55.903Z,5.40
2018-01-20T11:43:23.392Z,8.80
2018-01-20T11:45:50.860Z,8.23
2018-01-20T12:01:15.098Z,10.80
2018-01-20T12:03:42.573Z,8.30
2018-01-20T12:06:10.069Z,4.67
2018-01-20T12:08:38.311Z,4.63
2018-01-20T12:11:05.783Z,5.70
2018-01-20T12:13:33.278Z,3.77
2018-01-20T12:16:00.741Z,5.43
2018-01-20T12:18:28.216Z,4.37
2018-01-20T12:20:55.685Z,7.90
2018-01-20T12:23:23.168Z,4.30
2018-01-20T12:25:50.647Z,4.80
2018-01-20T12:28:18.886Z,6.00
2018-01-20T12:30:46.373Z,2.90
2018-01-20T12:33:13.872Z,3.73
2018-01-20T12:35:41.346Z,2.50
2018-01-20T12:38:08.838Z,2.83
2018-01-20T12:40:36.321Z,3.80
2018-01-20T12:43:04.556Z,4.60
2018-01-20T12:45:32.031Z,2.50
2018-01-20T12:47:59.516Z,6.93
2018-01-20T12:50:27.751Z,3.70
2018-01-20T12:52:55.230Z,3.53
2018-01-20T12:55:23.480Z,5.40
2018-01-20T12:57:51.077Z,6.77
2018-01-20T13:00:19.332Z,6.77
2018-01-20T13:02:46.815Z,3.97
2018-01-20T13:05:15.123Z,2.80
2018-01-20T13:07:42.583Z,2.30
2018-01-20T13:10:10.083Z,5.68
2018-01-20T13:12:38.392Z,3.00
2018-01-20T13:15:05.884Z,3.93
2018-01-20T13:17:33.376Z,5.03
2018-01-20T13:20:01.636Z,4.87
2018-01-20T13:22:29.095Z,3.77
2018-01-20T13:24:56.580Z,9.63
2018-01-20T13:27:24.815Z,17.10
2018-01-20T13:29:52.296Z,18.73
2018-01-20T13:32:19.763Z,15.65
2018-01-20T13:34:48.015Z,17.80
2018-01-20T13:37:15.497Z,9.83
2018-01-20T13:39:43.775Z,9.60
2018-01-20T13:42:12.014Z,6.10
2018-01-20T13:44:39.475Z,4.27
2018-01-20T13:47:06.955Z,5.83
2018-01-20T13:49:34.450Z,8.17
2018-01-20T13:52:01.930Z,7.13
2018-01-20T13:54:29.440Z,6.17
2018-01-20T13:56:57.702Z,8.53
2018-01-20T13:59:25.201Z,2.83
2018-01-20T14:01:52.671Z,4.20
2018-01-20T14:04:20.162Z,3.10
2018-01-20T14:06:47.623Z,3.87
2018-01-20T14:09:15.128Z,3.10
2018-01-20T14:11:42.596Z,7.13
2018-01-20T14:14:10.080Z,3.10
2018-01-20T14:16:37.570Z,4.10
2018-01-20T14:19:05.036Z,7.63
2018-01-20T14:21:33.284Z,3.13
2018-01-20T14:24:00.769Z,3.30
2018-01-20T14:26:28.825Z,3.10
2018-01-20T14:28:56.290Z,3.40
2018-01-20T14:31:23.782Z,11.77
2018-01-20T14:33:51.248Z,5.20
2018-01-20T14:36:18.765Z,8.47
2018-01-20T14:38:46.251Z,34.90
2018-01-20T14:41:13.743Z,27.63
2018-01-20T14:43:41.226Z,10.70
2018-01-20T14:46:08.711Z,7.77
2018-01-20T14:48:36.970Z,6.80
2018-01-20T14:51:05.957Z,7.87
2018-01-20T14:53:34.225Z,8.80
2018-01-20T14:56:01.720Z,3.20
2018-01-20T14:58:29.986Z,4.97
2018-01-20T15:00:58.268Z,3.63
2018-01-20T15:03:26.528Z,7.73
2018-01-20T15:05:54.026Z,18.70
2018-01-20T15:08:22.405Z,18.00
2018-01-20T15:10:49.877Z,7.57
2018-01-20T15:13:17.388Z,8.53
2018-01-20T15:15:45.631Z,8.23
2018-01-20T15:18:13.097Z,7.50
2018-01-20T15:20:41.197Z,7.87
2018-01-20T15:23:09.443Z,10.73
2018-01-20T15:25:36.928Z,6.57
2018-01-20T15:28:05.160Z,4.53
2018-01-20T15:30:32.652Z,9.50
2018-01-20T15:33:00.142Z,6.70
2018-01-20T15:35:27.619Z,7.83
2018-01-20T15:37:55.089Z,10.67
2018-01-20T15:40:22.605Z,14.60
2018-01-20T15:42:52.190Z,25.40
2018-01-20T15:45:21.183Z,10.83
2018-01-20T15:47:48.699Z,8.27
2018-01-20T15:50:16.210Z,10.83
2018-01-20T15:52:44.452Z,9.83
2018-01-20T15:55:11.918Z,11.30
2018-01-20T15:57:39.394Z,5.37
2018-01-20T16:00:07.687Z,6.13
2018-01-20T16:02:35.943Z,8.60
2018-01-20T16:05:04.191Z,7.37
2018-01-20T16:07:31.676Z,6.57
2018-01-20T16:09:59.216Z,6.77
2018-01-20T16:12:26.696Z,4.60
2018-01-20T16:14:54.163Z,4.77
2018-01-20T16:17:22.541Z,4.13
2018-01-20T16:19:50.779Z,5.90
2018-01-20T16:22:18.305Z,8.63
2018-01-20T16:24:45.777Z,5.37
2018-01-20T16:27:13.288Z,5.28
2018-01-20T16:29:40.764Z,8.67
2018-01-20T16:32:08.283Z,7.77
2018-01-20T16:34:35.751Z,7.23
2018-01-20T16:37:03.290Z,5.03
2018-01-20T16:39:30.760Z,7.75
2018-01-20T16:41:58.284Z,8.37
2018-01-20T16:44:25.741Z,4.83
2018-01-20T16:46:53.240Z,10.53
2018-01-20T16:49:21.487Z,10.60
2018-01-20T16:51:49.001Z,7.50
2018-01-20T16:54:17.408Z,7.40
2018-01-20T16:56:44.941Z,9.30
2018-01-20T16:59:13.184Z,5.57
2018-01-20T17:01:40.651Z,6.70
2018-01-20T17:04:08.133Z,7.00
2018-01-20T17:06:36.356Z,7.43
2018-01-20T17:09:03.852Z,8.77
2018-01-20T17:11:32.137Z,5.07
2018-01-20T17:14:00.396Z,4.80
2018-01-20T17:16:27.917Z,3.30
2018-01-20T17:18:55.398Z,4.60
2018-01-20T17:21:22.868Z,6.00
2018-01-20T17:23:50.340Z,7.10
2018-01-20T17:26:18.634Z,7.50
2018-01-20T17:28:46.111Z,6.07
2018-01-20T17:31:13.610Z,7.23
2018-01-20T17:33:41.078Z,7.00
2018-01-20T17:36:08.570Z,6.30
2018-01-20T17:38:36.045Z,7.60
2018-01-20T17:41:03.599Z,5.20
2018-01-20T17:43:31.075Z,5.33
2018-01-20T17:45:58.553Z,5.70
2018-01-20T17:48:26.092Z,5.60
2018-01-20T17:50:53.560Z,6.10
2018-01-20T17:53:21.075Z,8.27
2018-01-20T17:55:48.546Z,9.13
2018-01-20T17:58:16.016Z,9.70
2018-01-20T18:00:43.542Z,10.80
2018-01-20T18:03:11.011Z,5.20
2018-01-20T18:05:38.502Z,19.50
2018-01-20T18:08:05.993Z,26.12
2018-01-20T18:10:34.264Z,16.57
2018-01-20T18:13:11.602Z,32.90
2018-01-20T18:15:39.633Z,13.00
2018-01-20T18:18:07.863Z,14.70
2018-01-20T18:20:35.399Z,7.87
2018-01-20T18:23:02.919Z,8.40
2018-01-20T18:25:30.399Z,4.33
2018-01-20T18:27:57.870Z,4.07
2018-01-20T18:30:25.349Z,4.83
2018-01-20T18:32:52.860Z,5.13
2018-01-20T18:35:21.118Z,6.90
2018-01-20T18:37:48.701Z,6.90
2018-01-20T18:40:16.956Z,5.93
2018-01-20T18:42:44.599Z,9.40
2018-01-20T18:45:12.095Z,15.77
2018-01-20T18:47:40.360Z,20.03
2018-01-20T18:50:22.680Z,9.00
2018-01-20T18:52:50.961Z,5.00
2018-01-20T18:55:19.245Z,6.28
2018-01-20T18:57:47.485Z,4.00
2018-01-20T19:00:14.964Z,3.70
2018-01-20T19:02:43.206Z,4.57
2018-01-20T19:05:10.763Z,4.10
2018-01-20T19:07:38.293Z,4.57
2018-01-20T19:10:05.807Z,5.63
2018-01-20T19:12:33.403Z,4.30
2018-01-20T19:15:00.876Z,4.50
2018-01-20T19:17:28.392Z,6.23
2018-01-20T19:19:56.644Z,5.73
2018-01-20T19:22:24.162Z,4.85
2018-01-20T19:24:51.640Z,3.90
2018-01-20T19:27:19.152Z,3.60
2018-01-20T19:29:47.404Z,3.83
2018-01-20T19:32:16.447Z,5.37
2018-01-20T19:34:44.763Z,4.50
2018-01-20T19:37:12.264Z,3.93
2018-01-20T19:39:39.790Z,5.30
2018-01-20T19:42:07.315Z,5.70
2018-01-20T19:44:35.766Z,4.40
2018-01-20T19:47:03.326Z,4.70
2018-01-20T19:49:30.835Z,6.97
2018-01-20T19:51:58.359Z,10.93
2018-01-20T19:54:25.848Z,10.40
2018-01-20T19:56:53.389Z,10.13
2018-01-20T19:59:20.913Z,6.70
2018-01-20T20:01:48.390Z,6.00
2018-01-20T20:04:15.871Z,6.00
2018-01-20T20:06:43.393Z,6.87
2018-01-20T20:09:10.914Z,5.18
2018-01-20T20:11:38.405Z,6.63
2018-01-20T20:14:05.915Z,6.33
2018-01-20T20:16:33.434Z,5.17
2018-01-20T20:19:01.672Z,7.50
2018-01-20T20:21:29.260Z,7.70
2018-01-20T20:23:56.699Z,10.98
2018-01-20T20:26:24.946Z,9.27
2018-01-20T20:28:52.482Z,9.55
2018-01-20T20:31:20.019Z,9.20
2018-01-20T20:33:47.538Z,10.43
2018-01-20T20:36:15.789Z,9.40
2018-01-20T20:38:43.320Z,6.83
2018-01-20T20:41:10.822Z,9.03
2018-01-20T20:43:38.329Z,6.77
2018-01-20T20:46:05.791Z,7.10
2018-01-20T20:48:33.299Z,7.00
2018-01-20T20:51:00.828Z,6.70
2018-01-20T20:53:28.368Z,8.00
2018-01-20T20:55:55.841Z,8.67
2018-01-20T20:58:23.442Z,9.33
2018-01-20T21:00:50.917Z,9.55
2018-01-20T21:03:19.226Z,11.83
2018-01-20T21:05:46.772Z,11.60
2018-01-20T21:08:14.323Z,12.83
2018-01-20T21:10:41.859Z,13.03
2018-01-20T21:13:10.916Z,11.93
2018-01-20T21:15:38.530Z,11.37
2018-01-20T21:18:06.870Z,9.90
2018-01-20T21:20:34.387Z,9.53
2018-01-20T21:23:02.527Z,13.10
2018-01-20T21:25:30.911Z,14.90
2018-01-20T21:27:59.168Z,16.80
2018-01-20T21:30:26.707Z,25.70
2018-01-20T21:32:54.237Z,23.93
2018-01-20T21:35:21.851Z,17.90
2018-01-20T21:37:49.531Z,27.57
2018-01-20T21:40:17.795Z,17.57
2018-01-20T21:42:45.332Z,19.50
2018-01-20T21:45:12.847Z,17.13
2018-01-20T21:47:40.368Z,22.87
2018-01-20T21:50:07.851Z,22.30
2018-01-20T21:52:36.146Z,16.10
2018-01-20T21:55:03.615Z,17.07
2018-01-20T21:57:31.099Z,10.50
2018-01-20T21:59:59.406Z,13.43
2018-01-20T22:02:27.681Z,11.73
2018-01-20T22:04:55.951Z,14.83
2018-01-20T22:07:24.239Z,8.50
2018-01-20T22:09:52.545Z,9.00
2018-01-20T22:12:20.079Z,8.80
2018-01-20T22:14:47.583Z,11.40
2018-01-20T22:17:15.171Z,12.10
2018-01-20T22:19:42.703Z,22.58
2018-01-20T22:22:10.217Z,17.80
2018-01-20T22:24:37.759Z,14.00
2018-01-20T22:27:05.391Z,9.30
2018-01-20T22:29:32.864Z,9.65
2018-01-20T22:32:01.193Z,8.70
2018-01-20T22:34:28.732Z,10.77
2018-01-20T22:36:56.961Z,7.43
2018-01-20T22:39:24.499Z,9.03
2018-01-20T22:41:53.039Z,8.90
2018-01-20T22:44:21.296Z,11.03
2018-01-20T22:46:50.322Z,22.17
2018-01-20T22:49:18.609Z,7.43
2018-01-20T22:51:46.133Z,6.97
2018-01-20T22:54:15.162Z,5.90
2018-01-20T22:56:42.662Z,7.20
2018-01-20T22:59:10.181Z,7.50
2018-01-20T23:01:37.687Z,6.83
2018-01-20T23:04:05.163Z,7.20
2018-01-20T23:06:33.420Z,6.20
2018-01-20T23:09:01.005Z,9.90
2018-01-20T23:11:29.275Z,8.67
2018-01-20T23:13:56.802Z,8.33
2018-01-20T23:16:24.307Z,5.47
2018-01-20T23:18:52.557Z,4.83
2018-01-20T23:21:20.043Z,7.27
2018-01-20T23:23:48.277Z,4.50
2018-01-20T23:26:15.755Z,4.00
2018-01-20T23:28:44.042Z,4.30
2018-01-20T23:31:12.282Z,3.07
2018-01-20T23:33:39.758Z,2.90
2018-01-20T23:36:07.224Z,2.17
2018-01-20T23:38:34.699Z,4.03
2018-01-20T23:41:02.941Z,1.80
2018-01-20T23:43:30.458Z,2.70
2018-01-20T23:45:57.944Z,1.80
2018-01-20T23:48:26.939Z,1.70
2018-01-20T23:50:54.433Z,1.60
2018-01-20T23:53:21.896Z,1.67
2018-01-20T23:55:50.180Z,1.50
2018-01-20T23:58:17.671Z,1.50
